sensor_id;sensor_type;location;lat;lon;timestamp;temperature;humidity
4701;DHT22;8724;51.272;6.554;2022-07-12T00:00:10;20.90;99.90
4701;DHT22;8724;51.272;6.554;2022-07-12T00:02:40;20.90;99.90
4701;DHT22;8724;51.272;6.554;2022-07-12T00:05:09;20.90;99.90
4701;DHT22;8724;51.272;6.554;2022-07-12T00:07:37;20.90;99.90
4701;DHT22;8724;51.272;6.554;2022-07-12T00:10:06;20.80;99.90
4701;DHT22;8724;51.272;6.554;2022-07-12T00:12:35;20.80;99.90
4701;DHT22;8724;51.272;6.554;2022-07-12T00:15:04;20.80;99.90
4701;DHT22;8724;51.272;6.554;2022-07-12T00:17:33;20.80;99.90
4701;DHT22;8724;51.272;6.554;2022-07-12T00:20:03;20.80;99.90
4701;DHT22;8724;51.272;6.554;2022-07-12T00:22:32;20.80;99.90
4701;DHT22;8724;51.272;6.554;2022-07-12T00:25:00;20.80;99.90
4701;DHT22;8724;51.272;6.554;2022-07-12T00:27:29;20.70;99.90
4701;DHT22;8724;51.272;6.554;2022-07-12T00:29:57;20.80;99.90
4701;DHT22;8724;51.272;6.554;2022-07-12T00:32:25;20.70;99.90
4701;DHT22;8724;51.272;6.554;2022-07-12T00:34:54;20.70;99.90
4701;DHT22;8724;51.272;6.554;2022-07-12T00:37:23;20.70;99.90
4701;DHT22;8724;51.272;6.554;2022-07-12T00:39:52;20.60;99.90
4701;DHT22;8724;51.272;6.554;2022-07-12T00:42:20;20.60;99.90
4701;DHT22;8724;51.272;6.554;2022-07-12T00:44:48;20.60;99.90
4701;DHT22;8724;51.272;6.554;2022-07-12T00:47:25;20.60;99.90
4701;DHT22;8724;51.272;6.554;2022-07-12T00:49:55;20.60;99.90
4701;DHT22;8724;51.272;6.554;2022-07-12T00:52:26;20.90;99.90
4701;DHT22;8724;51.272;6.554;2022-07-12T00:54:55;20.60;99.90
4701;DHT22;8724;51.272;6.554;2022-07-12T00:57:23;20.60;99.90
4701;DHT22;8724;51.272;6.554;2022-07-12T00:59:52;20.50;99.90
4701;DHT22;8724;51.272;6.554;2022-07-12T01:02:20;20.60;99.90
4701;DHT22;8724;51.272;6.554;2022-07-12T01:04:50;20.50;99.90
4701;DHT22;8724;51.272;6.554;2022-07-12T01:07:19;20.50;99.90
4701;DHT22;8724;51.272;6.554;2022-07-12T01:09:48;20.50;99.90
4701;DHT22;8724;51.272;6.554;2022-07-12T01:12:17;20.50;99.90
4701;DHT22;8724;51.272;6.554;2022-07-12T01:14:47;20.50;99.90
4701;DHT22;8724;51.272;6.554;2022-07-12T01:17:16;20.50;99.90
4701;DHT22;8724;51.272;6.554;2022-07-12T01:19:44;20.50;99.90
4701;DHT22;8724;51.272;6.554;2022-07-12T01:22:15;20.40;99.90
4701;DHT22;8724;51.272;6.554;2022-07-12T01:24:45;20.40;99.90
4701;DHT22;8724;51.272;6.554;2022-07-12T01:27:13;20.40;99.90
4701;DHT22;8724;51.272;6.554;2022-07-12T01:29:42;20.40;99.90
4701;DHT22;8724;51.272;6.554;2022-07-12T01:32:10;20.40;99.90
4701;DHT22;8724;51.272;6.554;2022-07-12T01:34:57;20.30;99.90
4701;DHT22;8724;51.272;6.554;2022-07-12T01:37:28;20.30;99.90
4701;DHT22;8724;51.272;6.554;2022-07-12T01:39:58;20.30;99.90
4701;DHT22;8724;51.272;6.554;2022-07-12T01:42:28;20.30;99.90
4701;DHT22;8724;51.272;6.554;2022-07-12T01:44:57;20.30;99.90
4701;DHT22;8724;51.272;6.554;2022-07-12T01:47:27;20.30;99.90
4701;DHT22;8724;51.272;6.554;2022-07-12T01:49:55;20.20;99.90
4701;DHT22;8724;51.272;6.554;2022-07-12T01:52:24;20.20;99.90
4701;DHT22;8724;51.272;6.554;2022-07-12T01:54:53;20.20;99.90
4701;DHT22;8724;51.272;6.554;2022-07-12T01:57:24;20.20;99.90
4701;DHT22;8724;51.272;6.554;2022-07-12T01:59:53;20.20;99.90
4701;DHT22;8724;51.272;6.554;2022-07-12T02:02:23;20.20;99.90
4701;DHT22;8724;51.272;6.554;2022-07-12T02:04:52;20.20;99.90
4701;DHT22;8724;51.272;6.554;2022-07-12T02:07:22;20.20;99.90
4701;DHT22;8724;51.272;6.554;2022-07-12T02:09:51;20.10;99.90
4701;DHT22;8724;51.272;6.554;2022-07-12T02:12:19;20.10;99.90
4701;DHT22;8724;51.272;6.554;2022-07-12T02:14:49;20.10;99.90
4701;DHT22;8724;51.272;6.554;2022-07-12T02:17:18;20.10;99.90
4701;DHT22;8724;51.272;6.554;2022-07-12T02:19:46;20.10;99.90
4701;DHT22;8724;51.272;6.554;2022-07-12T02:22:14;20.00;99.90
4701;DHT22;8724;51.272;6.554;2022-07-12T02:24:43;20.00;99.90
4701;DHT22;8724;51.272;6.554;2022-07-12T02:27:11;20.00;99.90
4701;DHT22;8724;51.272;6.554;2022-07-12T02:29:39;20.00;99.90
4701;DHT22;8724;51.272;6.554;2022-07-12T02:32:09;20.00;99.90
4701;DHT22;8724;51.272;6.554;2022-07-12T02:34:38;19.90;99.90
4701;DHT22;8724;51.272;6.554;2022-07-12T02:37:06;19.90;99.90
4701;DHT22;8724;51.272;6.554;2022-07-12T02:39:35;19.90;99.90
4701;DHT22;8724;51.272;6.554;2022-07-12T02:42:04;19.90;99.90
4701;DHT22;8724;51.272;6.554;2022-07-12T02:44:33;19.90;99.90
4701;DHT22;8724;51.272;6.554;2022-07-12T02:47:01;19.90;99.90
4701;DHT22;8724;51.272;6.554;2022-07-12T02:49:31;19.90;99.90
4701;DHT22;8724;51.272;6.554;2022-07-12T02:51:59;19.90;99.90
4701;DHT22;8724;51.272;6.554;2022-07-12T02:54:27;19.90;99.90
4701;DHT22;8724;51.272;6.554;2022-07-12T02:56:55;19.80;99.90
4701;DHT22;8724;51.272;6.554;2022-07-12T02:59:24;19.80;99.90
4701;DHT22;8724;51.272;6.554;2022-07-12T03:01:52;19.80;99.90
4701;DHT22;8724;51.272;6.554;2022-07-12T03:04:21;19.80;99.90
4701;DHT22;8724;51.272;6.554;2022-07-12T03:06:50;19.80;99.90
4701;DHT22;8724;51.272;6.554;2022-07-12T03:09:19;19.80;99.90
4701;DHT22;8724;51.272;6.554;2022-07-12T03:11:47;19.70;99.90
4701;DHT22;8724;51.272;6.554;2022-07-12T03:14:15;19.70;99.90
4701;DHT22;8724;51.272;6.554;2022-07-12T03:16:45;19.70;99.90
4701;DHT22;8724;51.272;6.554;2022-07-12T03:19:13;19.70;99.90
4701;DHT22;8724;51.272;6.554;2022-07-12T03:21:42;19.70;99.90
4701;DHT22;8724;51.272;6.554;2022-07-12T03:24:12;19.70;99.90
4701;DHT22;8724;51.272;6.554;2022-07-12T03:26:41;19.60;99.90
4701;DHT22;8724;51.272;6.554;2022-07-12T03:29:09;19.70;99.90
4701;DHT22;8724;51.272;6.554;2022-07-12T03:31:38;19.60;99.90
4701;DHT22;8724;51.272;6.554;2022-07-12T03:34:06;19.60;99.90
4701;DHT22;8724;51.272;6.554;2022-07-12T03:36:35;19.60;99.90
4701;DHT22;8724;51.272;6.554;2022-07-12T03:39:03;19.60;99.90
4701;DHT22;8724;51.272;6.554;2022-07-12T03:41:32;19.60;99.90
4701;DHT22;8724;51.272;6.554;2022-07-12T03:44:01;19.60;99.90
4701;DHT22;8724;51.272;6.554;2022-07-12T03:46:29;19.60;99.90
4701;DHT22;8724;51.272;6.554;2022-07-12T03:48:59;19.50;99.90
4701;DHT22;8724;51.272;6.554;2022-07-12T03:51:28;19.50;99.90
4701;DHT22;8724;51.272;6.554;2022-07-12T03:53:56;19.50;99.90
4701;DHT22;8724;51.272;6.554;2022-07-12T03:56:24;19.50;99.90
4701;DHT22;8724;51.272;6.554;2022-07-12T03:59:11;19.50;99.90
4701;DHT22;8724;51.272;6.554;2022-07-12T04:01:40;19.50;99.90
4701;DHT22;8724;51.272;6.554;2022-07-12T04:04:08;19.50;99.90
4701;DHT22;8724;51.272;6.554;2022-07-12T04:06:37;19.50;99.90
4701;DHT22;8724;51.272;6.554;2022-07-12T04:09:05;19.50;99.90
4701;DHT22;8724;51.272;6.554;2022-07-12T04:11:34;19.50;99.90
4701;DHT22;8724;51.272;6.554;2022-07-12T04:14:02;19.50;99.90
4701;DHT22;8724;51.272;6.554;2022-07-12T04:16:32;19.50;99.90
4701;DHT22;8724;51.272;6.554;2022-07-12T04:19:00;19.50;99.90
4701;DHT22;8724;51.272;6.554;2022-07-12T04:21:28;19.50;99.90
4701;DHT22;8724;51.272;6.554;2022-07-12T04:23:57;19.50;99.90
4701;DHT22;8724;51.272;6.554;2022-07-12T04:26:25;19.50;99.90
4701;DHT22;8724;51.272;6.554;2022-07-12T04:28:53;19.50;99.90
4701;DHT22;8724;51.272;6.554;2022-07-12T04:31:26;19.50;99.90
4701;DHT22;8724;51.272;6.554;2022-07-12T04:33:55;19.40;99.90
4701;DHT22;8724;51.272;6.554;2022-07-12T04:36:24;19.50;99.90
4701;DHT22;8724;51.272;6.554;2022-07-12T04:38:52;19.40;99.90
4701;DHT22;8724;51.272;6.554;2022-07-12T04:41:21;19.50;99.90
4701;DHT22;8724;51.272;6.554;2022-07-12T04:43:50;19.40;99.90
4701;DHT22;8724;51.272;6.554;2022-07-12T04:46:18;19.40;99.90
4701;DHT22;8724;51.272;6.554;2022-07-12T04:48:47;19.50;99.90
4701;DHT22;8724;51.272;6.554;2022-07-12T04:51:16;19.50;99.90
4701;DHT22;8724;51.272;6.554;2022-07-12T04:53:44;19.50;99.90
4701;DHT22;8724;51.272;6.554;2022-07-12T04:56:13;19.50;99.90
4701;DHT22;8724;51.272;6.554;2022-07-12T04:58:41;19.50;99.90
4701;DHT22;8724;51.272;6.554;2022-07-12T05:01:09;19.50;99.90
4701;DHT22;8724;51.272;6.554;2022-07-12T05:03:38;19.50;99.90
4701;DHT22;8724;51.272;6.554;2022-07-12T05:06:06;19.50;99.90
4701;DHT22;8724;51.272;6.554;2022-07-12T05:08:36;19.50;99.90
4701;DHT22;8724;51.272;6.554;2022-07-12T05:11:05;19.50;99.90
4701;DHT22;8724;51.272;6.554;2022-07-12T05:13:33;19.50;99.90
4701;DHT22;8724;51.272;6.554;2022-07-12T05:16:01;19.60;99.90
4701;DHT22;8724;51.272;6.554;2022-07-12T05:18:30;19.50;99.90
4701;DHT22;8724;51.272;6.554;2022-07-12T05:20:58;19.50;99.90
4701;DHT22;8724;51.272;6.554;2022-07-12T05:23:26;19.60;99.90
4701;DHT22;8724;51.272;6.554;2022-07-12T05:25:56;19.60;99.90
4701;DHT22;8724;51.272;6.554;2022-07-12T05:28:24;19.60;99.90
4701;DHT22;8724;51.272;6.554;2022-07-12T05:30:53;19.60;99.90
4701;DHT22;8724;51.272;6.554;2022-07-12T05:33:21;19.60;99.90
4701;DHT22;8724;51.272;6.554;2022-07-12T05:35:49;19.60;99.90
4701;DHT22;8724;51.272;6.554;2022-07-12T05:38:18;19.60;99.90
4701;DHT22;8724;51.272;6.554;2022-07-12T05:40:47;19.60;99.90
4701;DHT22;8724;51.272;6.554;2022-07-12T05:43:17;19.70;99.90
4701;DHT22;8724;51.272;6.554;2022-07-12T05:45:45;19.70;99.90
4701;DHT22;8724;51.272;6.554;2022-07-12T05:48:14;19.70;99.90
4701;DHT22;8724;51.272;6.554;2022-07-12T05:50:43;19.70;99.90
4701;DHT22;8724;51.272;6.554;2022-07-12T05:53:11;19.70;99.90
4701;DHT22;8724;51.272;6.554;2022-07-12T05:55:51;19.70;99.90
4701;DHT22;8724;51.272;6.554;2022-07-12T05:58:22;19.70;99.90
4701;DHT22;8724;51.272;6.554;2022-07-12T06:00:50;19.80;99.90
4701;DHT22;8724;51.272;6.554;2022-07-12T06:03:18;19.80;99.90
4701;DHT22;8724;51.272;6.554;2022-07-12T06:05:47;19.80;99.90
4701;DHT22;8724;51.272;6.554;2022-07-12T06:08:15;19.80;99.90
4701;DHT22;8724;51.272;6.554;2022-07-12T06:10:43;19.80;99.90
4701;DHT22;8724;51.272;6.554;2022-07-12T06:13:12;19.90;99.90
4701;DHT22;8724;51.272;6.554;2022-07-12T06:15:42;19.90;99.90
4701;DHT22;8724;51.272;6.554;2022-07-12T06:18:10;19.90;99.90
4701;DHT22;8724;51.272;6.554;2022-07-12T06:20:38;19.90;99.90
4701;DHT22;8724;51.272;6.554;2022-07-12T06:23:07;19.90;99.90
4701;DHT22;8724;51.272;6.554;2022-07-12T06:25:35;20.00;99.90
4701;DHT22;8724;51.272;6.554;2022-07-12T06:28:11;20.00;99.90
4701;DHT22;8724;51.272;6.554;2022-07-12T06:30:41;20.00;99.90
4701;DHT22;8724;51.272;6.554;2022-07-12T06:33:11;20.00;99.90
4701;DHT22;8724;51.272;6.554;2022-07-12T06:35:40;20.10;99.90
4701;DHT22;8724;51.272;6.554;2022-07-12T06:38:11;20.10;99.90
4701;DHT22;8724;51.272;6.554;2022-07-12T06:40:39;20.10;99.90
4701;DHT22;8724;51.272;6.554;2022-07-12T06:43:08;20.10;99.90
4701;DHT22;8724;51.272;6.554;2022-07-12T06:45:37;20.10;99.90
4701;DHT22;8724;51.272;6.554;2022-07-12T06:48:07;20.20;99.90
4701;DHT22;8724;51.272;6.554;2022-07-12T06:50:35;20.20;99.90
4701;DHT22;8724;51.272;6.554;2022-07-12T06:53:04;20.20;99.90
4701;DHT22;8724;51.272;6.554;2022-07-12T06:55:32;20.20;99.90
4701;DHT22;8724;51.272;6.554;2022-07-12T06:58:00;20.20;99.90
4701;DHT22;8724;51.272;6.554;2022-07-12T07:00:29;20.30;99.90
4701;DHT22;8724;51.272;6.554;2022-07-12T07:02:57;20.20;99.90
4701;DHT22;8724;51.272;6.554;2022-07-12T07:05:27;20.30;99.90
4701;DHT22;8724;51.272;6.554;2022-07-12T07:07:55;20.30;99.90
4701;DHT22;8724;51.272;6.554;2022-07-12T07:10:24;20.30;99.90
4701;DHT22;8724;51.272;6.554;2022-07-12T07:12:52;20.40;99.90
4701;DHT22;8724;51.272;6.554;2022-07-12T07:15:21;20.30;99.90
4701;DHT22;8724;51.272;6.554;2022-07-12T07:17:49;20.40;99.90
4701;DHT22;8724;51.272;6.554;2022-07-12T07:20:18;20.40;99.90
4701;DHT22;8724;51.272;6.554;2022-07-12T07:22:48;20.40;99.90
4701;DHT22;8724;51.272;6.554;2022-07-12T07:25:17;20.50;99.90
4701;DHT22;8724;51.272;6.554;2022-07-12T07:27:45;20.50;99.90
4701;DHT22;8724;51.272;6.554;2022-07-12T07:30:14;20.50;99.90
4701;DHT22;8724;51.272;6.554;2022-07-12T07:32:59;20.50;99.90
4701;DHT22;8724;51.272;6.554;2022-07-12T07:35:28;20.50;99.90
4701;DHT22;8724;51.272;6.554;2022-07-12T07:37:58;20.60;99.90
4701;DHT22;8724;51.272;6.554;2022-07-12T07:40:27;20.60;99.90
4701;DHT22;8724;51.272;6.554;2022-07-12T07:42:55;20.60;99.90
4701;DHT22;8724;51.272;6.554;2022-07-12T07:45:23;20.60;99.90
4701;DHT22;8724;51.272;6.554;2022-07-12T07:47:52;20.60;99.90
4701;DHT22;8724;51.272;6.554;2022-07-12T07:50:40;20.60;99.90
4701;DHT22;8724;51.272;6.554;2022-07-12T07:53:10;20.90;99.90
4701;DHT22;8724;51.272;6.554;2022-07-12T07:55:39;20.70;99.90
4701;DHT22;8724;51.272;6.554;2022-07-12T07:58:07;20.70;99.90
4701;DHT22;8724;51.272;6.554;2022-07-12T08:00:35;20.70;99.90
4701;DHT22;8724;51.272;6.554;2022-07-12T08:03:04;20.70;99.90
4701;DHT22;8724;51.272;6.554;2022-07-12T08:05:32;20.70;99.90
4701;DHT22;8724;51.272;6.554;2022-07-12T08:08:00;20.80;99.90
4701;DHT22;8724;51.272;6.554;2022-07-12T08:10:30;20.70;99.90
4701;DHT22;8724;51.272;6.554;2022-07-12T08:12:59;20.80;99.90
4701;DHT22;8724;51.272;6.554;2022-07-12T08:15:27;20.80;99.90
4701;DHT22;8724;51.272;6.554;2022-07-12T08:17:55;20.80;99.90
4701;DHT22;8724;51.272;6.554;2022-07-12T08:20:25;20.80;99.90
4701;DHT22;8724;51.272;6.554;2022-07-12T08:23:13;20.80;99.90
4701;DHT22;8724;51.272;6.554;2022-07-12T08:25:46;20.80;99.90
4701;DHT22;8724;51.272;6.554;2022-07-12T08:28:14;20.80;99.90
4701;DHT22;8724;51.272;6.554;2022-07-12T08:30:43;20.90;99.90
4701;DHT22;8724;51.272;6.554;2022-07-12T08:33:14;20.90;99.90
4701;DHT22;8724;51.272;6.554;2022-07-12T08:35:46;20.90;99.90
4701;DHT22;8724;51.272;6.554;2022-07-12T08:38:14;20.90;99.90
4701;DHT22;8724;51.272;6.554;2022-07-12T08:40:44;20.90;99.90
4701;DHT22;8724;51.272;6.554;2022-07-12T08:43:14;20.90;99.90
4701;DHT22;8724;51.272;6.554;2022-07-12T08:45:42;21.00;99.90
4701;DHT22;8724;51.272;6.554;2022-07-12T08:48:10;21.00;99.90
4701;DHT22;8724;51.272;6.554;2022-07-12T08:50:39;21.00;99.90
4701;DHT22;8724;51.272;6.554;2022-07-12T08:53:12;21.00;99.90
4701;DHT22;8724;51.272;6.554;2022-07-12T08:55:41;21.00;99.90
4701;DHT22;8724;51.272;6.554;2022-07-12T08:58:16;21.00;99.90
4701;DHT22;8724;51.272;6.554;2022-07-12T09:00:46;21.10;99.90
4701;DHT22;8724;51.272;6.554;2022-07-12T09:03:16;21.10;99.90
4701;DHT22;8724;51.272;6.554;2022-07-12T09:05:50;21.10;99.90
4701;DHT22;8724;51.272;6.554;2022-07-12T09:08:24;21.20;99.90
4701;DHT22;8724;51.272;6.554;2022-07-12T09:10:56;21.20;99.90
4701;DHT22;8724;51.272;6.554;2022-07-12T09:13:47;21.20;99.90
4701;DHT22;8724;51.272;6.554;2022-07-12T09:16:18;21.20;99.90
4701;DHT22;8724;51.272;6.554;2022-07-12T09:18:47;21.30;99.90
4701;DHT22;8724;51.272;6.554;2022-07-12T09:21:24;21.30;99.90
4701;DHT22;8724;51.272;6.554;2022-07-12T09:23:54;21.30;99.90
4701;DHT22;8724;51.272;6.554;2022-07-12T09:26:29;21.40;99.90
4701;DHT22;8724;51.272;6.554;2022-07-12T09:29:06;21.40;99.90
4701;DHT22;8724;51.272;6.554;2022-07-12T09:31:42;21.40;99.90
4701;DHT22;8724;51.272;6.554;2022-07-12T09:34:25;21.40;99.90
4701;DHT22;8724;51.272;6.554;2022-07-12T09:37:10;21.40;99.90
4701;DHT22;8724;51.272;6.554;2022-07-12T09:39:39;21.40;99.90
4701;DHT22;8724;51.272;6.554;2022-07-12T09:42:09;21.50;99.90
4701;DHT22;8724;51.272;6.554;2022-07-12T09:44:40;21.50;99.90
4701;DHT22;8724;51.272;6.554;2022-07-12T09:47:09;21.50;99.90
4701;DHT22;8724;51.272;6.554;2022-07-12T09:49:39;21.50;99.90
4701;DHT22;8724;51.272;6.554;2022-07-12T09:52:11;21.50;99.90
4701;DHT22;8724;51.272;6.554;2022-07-12T09:54:41;21.50;99.90
4701;DHT22;8724;51.272;6.554;2022-07-12T09:57:16;21.60;99.90
4701;DHT22;8724;51.272;6.554;2022-07-12T09:59:50;21.60;99.90
4701;DHT22;8724;51.272;6.554;2022-07-12T10:02:19;21.60;99.90
4701;DHT22;8724;51.272;6.554;2022-07-12T10:04:51;21.60;99.90
4701;DHT22;8724;51.272;6.554;2022-07-12T10:07:19;21.60;99.90
4701;DHT22;8724;51.272;6.554;2022-07-12T10:09:50;21.60;99.90
4701;DHT22;8724;51.272;6.554;2022-07-12T10:12:21;21.60;99.90
4701;DHT22;8724;51.272;6.554;2022-07-12T10:14:57;21.60;99.90
4701;DHT22;8724;51.272;6.554;2022-07-12T10:17:27;21.60;99.90
4701;DHT22;8724;51.272;6.554;2022-07-12T10:20:17;21.60;99.90
4701;DHT22;8724;51.272;6.554;2022-07-12T10:22:46;21.70;99.90
4701;DHT22;8724;51.272;6.554;2022-07-12T10:25:32;21.70;99.90
4701;DHT22;8724;51.272;6.554;2022-07-12T10:28:01;21.70;99.90
4701;DHT22;8724;51.272;6.554;2022-07-12T10:30:41;21.70;99.90
4701;DHT22;8724;51.272;6.554;2022-07-12T10:33:21;21.70;99.90
4701;DHT22;8724;51.272;6.554;2022-07-12T10:35:59;21.70;99.90
4701;DHT22;8724;51.272;6.554;2022-07-12T10:38:28;21.70;99.90
4701;DHT22;8724;51.272;6.554;2022-07-12T10:40:57;21.70;99.90
4701;DHT22;8724;51.272;6.554;2022-07-12T10:43:30;21.70;99.90
4701;DHT22;8724;51.272;6.554;2022-07-12T10:46:20;21.70;99.90
4701;DHT22;8724;51.272;6.554;2022-07-12T10:48:50;21.80;99.90
4701;DHT22;8724;51.272;6.554;2022-07-12T10:51:19;21.80;99.90
4701;DHT22;8724;51.272;6.554;2022-07-12T10:53:49;21.80;99.90
4701;DHT22;8724;51.272;6.554;2022-07-12T10:56:21;21.80;99.90
4701;DHT22;8724;51.272;6.554;2022-07-12T10:58:58;21.80;99.90
4701;DHT22;8724;51.272;6.554;2022-07-12T11:01:30;21.90;99.90
4701;DHT22;8724;51.272;6.554;2022-07-12T11:04:05;21.90;99.90
4701;DHT22;8724;51.272;6.554;2022-07-12T11:06:36;22.00;99.90
4701;DHT22;8724;51.272;6.554;2022-07-12T11:09:06;22.00;99.90
4701;DHT22;8724;51.272;6.554;2022-07-12T11:11:41;22.00;99.90
4701;DHT22;8724;51.272;6.554;2022-07-12T11:14:12;22.00;99.90
4701;DHT22;8724;51.272;6.554;2022-07-12T11:16:51;22.00;99.90
4701;DHT22;8724;51.272;6.554;2022-07-12T11:19:21;22.10;99.90
4701;DHT22;8724;51.272;6.554;2022-07-12T11:21:51;22.10;99.90
4701;DHT22;8724;51.272;6.554;2022-07-12T11:24:24;22.10;99.90
4701;DHT22;8724;51.272;6.554;2022-07-12T11:26:54;22.20;99.90
4701;DHT22;8724;51.272;6.554;2022-07-12T11:29:23;22.20;99.90
4701;DHT22;8724;51.272;6.554;2022-07-12T11:32:01;22.20;99.90
4701;DHT22;8724;51.272;6.554;2022-07-12T11:34:38;22.20;99.90
4701;DHT22;8724;51.272;6.554;2022-07-12T11:37:07;22.30;99.90
4701;DHT22;8724;51.272;6.554;2022-07-12T11:39:36;22.30;99.90
4701;DHT22;8724;51.272;6.554;2022-07-12T11:42:06;22.30;99.90
4701;DHT22;8724;51.272;6.554;2022-07-12T11:44:42;22.40;99.90
4701;DHT22;8724;51.272;6.554;2022-07-12T11:47:12;22.40;99.90
4701;DHT22;8724;51.272;6.554;2022-07-12T11:49:42;22.40;99.90
4701;DHT22;8724;51.272;6.554;2022-07-12T11:52:13;22.50;99.90
4701;DHT22;8724;51.272;6.554;2022-07-12T11:54:42;22.50;99.90
4701;DHT22;8724;51.272;6.554;2022-07-12T11:57:11;22.50;99.90
4701;DHT22;8724;51.272;6.554;2022-07-12T11:59:40;22.60;99.90
4701;DHT22;8724;51.272;6.554;2022-07-12T12:02:10;22.60;99.90
4701;DHT22;8724;51.272;6.554;2022-07-12T12:04:48;22.70;99.90
4701;DHT22;8724;51.272;6.554;2022-07-12T12:07:18;23.00;99.90
4701;DHT22;8724;51.272;6.554;2022-07-12T12:10:00;22.80;99.90
4701;DHT22;8724;51.272;6.554;2022-07-12T12:12:35;22.80;99.90
4701;DHT22;8724;51.272;6.554;2022-07-12T12:15:05;22.80;99.90
4701;DHT22;8724;51.272;6.554;2022-07-12T12:17:35;22.80;99.90
4701;DHT22;8724;51.272;6.554;2022-07-12T12:20:11;22.90;99.90
4701;DHT22;8724;51.272;6.554;2022-07-12T12:22:39;22.90;99.90
4701;DHT22;8724;51.272;6.554;2022-07-12T12:25:08;22.90;99.90
4701;DHT22;8724;51.272;6.554;2022-07-12T12:27:45;23.00;99.90
4701;DHT22;8724;51.272;6.554;2022-07-12T12:30:34;23.00;99.90
4701;DHT22;8724;51.272;6.554;2022-07-12T12:33:04;23.10;99.90
4701;DHT22;8724;51.272;6.554;2022-07-12T12:35:36;23.10;99.90
4701;DHT22;8724;51.272;6.554;2022-07-12T12:38:11;23.10;99.90
4701;DHT22;8724;51.272;6.554;2022-07-12T12:40:41;23.20;99.90
4701;DHT22;8724;51.272;6.554;2022-07-12T12:43:20;23.10;99.90
4701;DHT22;8724;51.272;6.554;2022-07-12T12:45:50;23.20;99.90
4701;DHT22;8724;51.272;6.554;2022-07-12T12:48:20;23.30;99.90
4701;DHT22;8724;51.272;6.554;2022-07-12T12:50:50;23.30;99.90
4701;DHT22;8724;51.272;6.554;2022-07-12T12:53:21;23.40;99.90
4701;DHT22;8724;51.272;6.554;2022-07-12T12:55:53;23.30;99.90
4701;DHT22;8724;51.272;6.554;2022-07-12T12:58:23;23.40;99.90
4701;DHT22;8724;51.272;6.554;2022-07-12T13:00:53;23.40;99.90
4701;DHT22;8724;51.272;6.554;2022-07-12T13:03:22;23.50;99.90
4701;DHT22;8724;51.272;6.554;2022-07-12T13:05:53;23.50;99.90
4701;DHT22;8724;51.272;6.554;2022-07-12T13:08:22;23.60;99.90
4701;DHT22;8724;51.272;6.554;2022-07-12T13:10:50;23.70;99.90
4701;DHT22;8724;51.272;6.554;2022-07-12T13:13:35;23.70;99.90
4701;DHT22;8724;51.272;6.554;2022-07-12T13:16:04;23.70;99.90
4701;DHT22;8724;51.272;6.554;2022-07-12T13:18:33;23.80;99.90
4701;DHT22;8724;51.272;6.554;2022-07-12T13:21:03;23.80;99.90
4701;DHT22;8724;51.272;6.554;2022-07-12T13:23:31;23.90;99.90
4701;DHT22;8724;51.272;6.554;2022-07-12T13:25:59;24.00;99.90
4701;DHT22;8724;51.272;6.554;2022-07-12T13:28:28;24.00;99.90
4701;DHT22;8724;51.272;6.554;2022-07-12T13:30:57;24.10;99.90
4701;DHT22;8724;51.272;6.554;2022-07-12T13:33:25;24.20;99.90
4701;DHT22;8724;51.272;6.554;2022-07-12T13:35:53;24.20;99.90
4701;DHT22;8724;51.272;6.554;2022-07-12T13:38:23;24.30;99.90
4701;DHT22;8724;51.272;6.554;2022-07-12T13:40:52;24.40;99.90
4701;DHT22;8724;51.272;6.554;2022-07-12T13:43:20;24.40;99.90
4701;DHT22;8724;51.272;6.554;2022-07-12T13:45:50;24.50;99.90
4701;DHT22;8724;51.272;6.554;2022-07-12T13:48:18;24.50;99.90
4701;DHT22;8724;51.272;6.554;2022-07-12T13:50:47;24.60;99.90
4701;DHT22;8724;51.272;6.554;2022-07-12T13:53:36;24.60;99.90
4701;DHT22;8724;51.272;6.554;2022-07-12T13:56:05;24.70;99.90
4701;DHT22;8724;51.272;6.554;2022-07-12T13:58:33;24.70;99.90
4701;DHT22;8724;51.272;6.554;2022-07-12T14:01:02;24.70;99.90
4701;DHT22;8724;51.272;6.554;2022-07-12T14:03:30;24.80;99.90
4701;DHT22;8724;51.272;6.554;2022-07-12T14:05:58;24.80;99.90
4701;DHT22;8724;51.272;6.554;2022-07-12T14:08:27;24.90;99.90
4701;DHT22;8724;51.272;6.554;2022-07-12T14:10:56;24.90;99.90
4701;DHT22;8724;51.272;6.554;2022-07-12T14:13:25;24.90;99.90
4701;DHT22;8724;51.272;6.554;2022-07-12T14:15:53;25.00;99.90
4701;DHT22;8724;51.272;6.554;2022-07-12T14:18:21;25.00;99.90
4701;DHT22;8724;51.272;6.554;2022-07-12T14:20:50;25.00;99.90
4701;DHT22;8724;51.272;6.554;2022-07-12T14:23:18;25.10;99.90
4701;DHT22;8724;51.272;6.554;2022-07-12T14:25:46;25.10;99.90
4701;DHT22;8724;51.272;6.554;2022-07-12T14:28:16;25.10;99.90
4701;DHT22;8724;51.272;6.554;2022-07-12T14:30:44;25.20;99.90
4701;DHT22;8724;51.272;6.554;2022-07-12T14:33:13;25.20;99.90
4701;DHT22;8724;51.272;6.554;2022-07-12T14:35:41;25.20;99.90
4701;DHT22;8724;51.272;6.554;2022-07-12T14:38:09;25.30;99.90
4701;DHT22;8724;51.272;6.554;2022-07-12T14:40:38;25.40;99.90
4701;DHT22;8724;51.272;6.554;2022-07-12T14:43:06;25.40;99.90
4701;DHT22;8724;51.272;6.554;2022-07-12T14:45:36;25.50;99.90
4701;DHT22;8724;51.272;6.554;2022-07-12T14:48:04;25.50;99.90
4701;DHT22;8724;51.272;6.554;2022-07-12T14:50:33;25.50;99.90
4701;DHT22;8724;51.272;6.554;2022-07-12T14:53:01;25.50;99.90
4701;DHT22;8724;51.272;6.554;2022-07-12T14:55:29;25.50;99.90
4701;DHT22;8724;51.272;6.554;2022-07-12T14:57:58;25.60;99.90
4701;DHT22;8724;51.272;6.554;2022-07-12T15:00:27;25.60;99.90
4701;DHT22;8724;51.272;6.554;2022-07-12T15:02:56;25.70;99.90
4701;DHT22;8724;51.272;6.554;2022-07-12T15:05:28;25.70;99.90
4701;DHT22;8724;51.272;6.554;2022-07-12T15:07:56;25.80;99.90
4701;DHT22;8724;51.272;6.554;2022-07-12T15:10:24;26.00;99.90
4701;DHT22;8724;51.272;6.554;2022-07-12T15:12:53;26.30;99.90
4701;DHT22;8724;51.272;6.554;2022-07-12T15:15:21;26.60;99.90
4701;DHT22;8724;51.272;6.554;2022-07-12T15:17:51;26.90;99.90
4701;DHT22;8724;51.272;6.554;2022-07-12T15:20:22;27.20;99.90
4701;DHT22;8724;51.272;6.554;2022-07-12T15:22:58;27.50;99.90
4701;DHT22;8724;51.272;6.554;2022-07-12T15:25:27;27.70;99.90
4701;DHT22;8724;51.272;6.554;2022-07-12T15:27:55;27.90;99.90
4701;DHT22;8724;51.272;6.554;2022-07-12T15:30:23;28.10;99.90
4701;DHT22;8724;51.272;6.554;2022-07-12T15:32:52;28.20;99.90
4701;DHT22;8724;51.272;6.554;2022-07-12T15:35:23;28.10;99.90
4701;DHT22;8724;51.272;6.554;2022-07-12T15:37:53;28.10;99.90
4701;DHT22;8724;51.272;6.554;2022-07-12T15:40:21;28.10;99.90
4701;DHT22;8724;51.272;6.554;2022-07-12T15:42:50;28.10;99.90
4701;DHT22;8724;51.272;6.554;2022-07-12T15:45:19;28.10;99.90
4701;DHT22;8724;51.272;6.554;2022-07-12T15:47:47;28.10;99.90
4701;DHT22;8724;51.272;6.554;2022-07-12T15:50:15;28.20;99.90
4701;DHT22;8724;51.272;6.554;2022-07-12T15:52:45;28.40;99.90
4701;DHT22;8724;51.272;6.554;2022-07-12T15:55:31;28.60;99.90
4701;DHT22;8724;51.272;6.554;2022-07-12T15:57:59;28.80;99.90
4701;DHT22;8724;51.272;6.554;2022-07-12T16:00:28;28.90;99.90
4701;DHT22;8724;51.272;6.554;2022-07-12T16:02:57;29.00;99.90
4701;DHT22;8724;51.272;6.554;2022-07-12T16:05:26;29.10;99.90
4701;DHT22;8724;51.272;6.554;2022-07-12T16:07:56;29.00;99.90
4701;DHT22;8724;51.272;6.554;2022-07-12T16:10:24;28.90;99.90
4701;DHT22;8724;51.272;6.554;2022-07-12T16:12:52;28.70;99.90
4701;DHT22;8724;51.272;6.554;2022-07-12T16:15:21;28.50;99.90
4701;DHT22;8724;51.272;6.554;2022-07-12T16:17:49;28.30;99.90
4701;DHT22;8724;51.272;6.554;2022-07-12T16:20:18;28.20;99.90